createdAt,value
2023-05-21T00:00:30.756Z,537.00
2023-05-21T00:01:30.785Z,539.00
2023-05-21T00:02:30.846Z,537.00
2023-05-21T00:03:30.949Z,539.00
2023-05-21T00:04:30.858Z,541.00
2023-05-21T00:05:30.886Z,540.00
2023-05-21T00:06:30.977Z,541.00
2023-05-21T00:07:30.943Z,543.00
2023-05-21T00:08:31.015Z,538.00
2023-05-21T00:09:31.880Z,540.00
2023-05-21T00:10:31.086Z,540.00
2023-05-21T00:11:31.110Z,542.00
2023-05-21T00:12:31.132Z,541.00
2023-05-21T00:13:31.201Z,538.00
2023-05-21T00:14:31.257Z,542.00
2023-05-21T00:15:31.287Z,541.00
2023-05-21T00:16:31.356Z,540.00
2023-05-21T00:17:31.407Z,533.00
2023-05-21T00:18:31.359Z,538.00
2023-05-21T00:19:31.504Z,534.00
2023-05-21T00:20:31.499Z,539.00
2023-05-21T00:21:31.483Z,540.00
2023-05-21T00:22:31.536Z,540.00
2023-05-21T00:23:31.565Z,539.00
2023-05-21T00:24:31.608Z,538.00
2023-05-21T00:25:31.696Z,545.00
2023-05-21T00:26:31.690Z,541.00
2023-05-21T00:27:31.743Z,533.00
2023-05-21T00:28:31.795Z,540.00
2023-05-21T00:29:31.816Z,535.00
2023-05-21T00:30:31.893Z,537.00
2023-05-21T00:31:31.906Z,541.00
2023-05-21T00:32:31.994Z,544.00
2023-05-21T00:33:31.976Z,540.00
2023-05-21T00:34:31.988Z,538.00
2023-05-21T00:35:32.065Z,540.00
2023-05-21T00:36:32.118Z,539.00
2023-05-21T00:37:32.136Z,536.00
2023-05-21T00:38:32.178Z,539.00
2023-05-21T00:39:32.247Z,537.00
2023-05-21T00:40:32.300Z,536.00
2023-05-21T00:41:32.341Z,541.00
2023-05-21T00:42:32.408Z,541.00
2023-05-21T00:43:32.431Z,543.00
2023-05-21T00:44:32.450Z,536.00
2023-05-21T00:45:32.565Z,536.00
2023-05-21T00:46:32.603Z,537.00
2023-05-21T00:47:32.695Z,543.00
2023-05-21T00:48:32.673Z,538.00
2023-05-21T00:49:32.718Z,538.00
2023-05-21T00:50:32.778Z,538.00
2023-05-21T00:51:32.830Z,537.00
2023-05-21T00:52:32.905Z,537.00
2023-05-21T00:53:32.915Z,533.00
2023-05-21T00:54:32.954Z,534.00
2023-05-21T00:55:33.017Z,538.00
2023-05-21T00:56:33.073Z,537.00
2023-05-21T00:57:33.073Z,535.00
2023-05-21T00:58:33.179Z,537.00
2023-05-21T00:59:33.176Z,537.00
2023-05-21T01:00:33.199Z,532.00
2023-05-21T01:01:33.327Z,532.00
2023-05-21T01:02:33.349Z,536.00
2023-05-21T01:03:33.417Z,530.00
2023-05-21T01:04:33.427Z,535.00
2023-05-21T01:05:33.629Z,534.00
2023-05-21T01:06:33.534Z,532.00
2023-05-21T01:07:33.626Z,539.00
2023-05-21T01:08:33.655Z,543.00
2023-05-21T01:09:34.370Z,535.00
2023-05-21T01:10:33.735Z,534.00
2023-05-21T01:11:33.788Z,535.00
2023-05-21T01:12:33.816Z,532.00
2023-05-21T01:13:33.904Z,529.00
2023-05-21T01:14:33.905Z,534.00
2023-05-21T01:15:34.134Z,537.00
2023-05-21T01:16:34.050Z,539.00
2023-05-21T01:17:34.313Z,535.00
2023-05-21T01:18:34.149Z,536.00
2023-05-21T01:19:34.217Z,543.00
2023-05-21T01:20:34.227Z,536.00
2023-05-21T01:21:34.312Z,538.00
2023-05-21T01:22:34.387Z,538.00
2023-05-21T01:23:34.423Z,535.00
2023-05-21T01:24:34.486Z,533.00
2023-05-21T01:25:34.689Z,540.00
2023-05-21T01:26:34.555Z,532.00
2023-05-21T01:27:34.609Z,533.00
2023-05-21T01:28:34.657Z,536.00
2023-05-21T01:29:34.714Z,532.00
2023-05-21T01:30:34.798Z,538.00
2023-05-21T01:31:34.819Z,531.00
2023-05-21T01:32:34.961Z,533.00
2023-05-21T01:33:35.050Z,532.00
2023-05-21T01:34:35.030Z,531.00
2023-05-21T01:35:35.220Z,533.00
2023-05-21T01:36:35.136Z,535.00
2023-05-21T01:37:35.162Z,531.00
2023-05-21T01:38:35.245Z,538.00
2023-05-21T01:39:35.341Z,538.00
2023-05-21T01:40:35.370Z,534.00
2023-05-21T01:41:35.361Z,539.00
2023-05-21T01:42:35.388Z,539.00
2023-05-21T01:43:35.463Z,544.00
2023-05-21T01:44:35.566Z,543.00
2023-05-21T01:45:35.762Z,534.00
2023-05-21T01:46:35.705Z,531.00
2023-05-21T01:47:35.686Z,533.00
2023-05-21T01:48:35.742Z,534.00
2023-05-21T01:49:35.831Z,538.00
2023-05-21T01:50:35.869Z,536.00
2023-05-21T01:51:35.891Z,532.00
2023-05-21T01:52:35.986Z,535.00
2023-05-21T01:53:36.010Z,542.00
2023-05-21T01:54:36.051Z,537.00
2023-05-21T01:55:36.448Z,542.00
2023-05-21T01:56:36.194Z,531.00
2023-05-21T01:57:36.251Z,540.00
2023-05-21T01:58:36.299Z,535.00
2023-05-21T01:59:36.306Z,540.00
2023-05-21T02:00:36.832Z,532.00
2023-05-21T02:01:36.406Z,534.00
2023-05-21T02:02:36.532Z,546.00
2023-05-21T02:03:36.688Z,546.00
2023-05-21T02:04:36.593Z,536.00
2023-05-21T02:05:36.786Z,539.00
2023-05-21T02:06:36.671Z,533.00
2023-05-21T02:07:36.769Z,534.00
2023-05-21T02:08:36.784Z,543.00
2023-05-21T02:09:36.830Z,539.00
2023-05-21T02:10:36.916Z,530.00
2023-05-21T02:11:37.005Z,532.00
2023-05-21T02:12:37.004Z,532.00
2023-05-21T02:13:37.037Z,541.00
2023-05-21T02:14:37.101Z,530.00
2023-05-21T02:15:37.265Z,529.00
2023-05-21T02:16:37.283Z,536.00
2023-05-21T02:17:37.278Z,539.00
2023-05-21T02:18:37.300Z,538.00
2023-05-21T02:19:37.410Z,531.00
2023-05-21T02:20:37.395Z,539.00
2023-05-21T02:21:37.584Z,535.00
2023-05-21T02:22:37.522Z,538.00
2023-05-21T02:23:37.592Z,528.00
2023-05-21T02:24:37.631Z,533.00
2023-05-21T02:25:37.830Z,544.00
2023-05-21T02:26:37.723Z,536.00
2023-05-21T02:27:37.807Z,540.00
2023-05-21T02:28:37.820Z,538.00
2023-05-21T02:29:37.879Z,529.00
2023-05-21T02:30:37.968Z,537.00
2023-05-21T02:31:37.974Z,532.00
2023-05-21T02:32:38.046Z,537.00
2023-05-21T02:33:38.103Z,542.00
2023-05-21T02:34:38.124Z,529.00
2023-05-21T02:35:38.331Z,535.00
2023-05-21T02:36:38.243Z,529.00
2023-05-21T02:37:38.314Z,533.00
2023-05-21T02:38:38.373Z,529.00
2023-05-21T02:39:38.419Z,536.00
2023-05-21T02:40:38.424Z,538.00
2023-05-21T02:41:38.498Z,547.00
2023-05-21T02:42:38.545Z,532.00
2023-05-21T02:43:38.618Z,529.00
2023-05-21T02:44:38.663Z,537.00
2023-05-21T02:45:38.857Z,538.00
2023-05-21T02:46:38.791Z,535.00
2023-05-21T02:47:38.964Z,529.00
2023-05-21T02:48:38.901Z,545.00
2023-05-21T02:49:38.902Z,548.00
2023-05-21T02:50:38.959Z,532.00
2023-05-21T02:51:39.033Z,539.00
2023-05-21T02:52:39.061Z,536.00
2023-05-21T02:53:39.136Z,538.00
2023-05-21T02:54:39.167Z,529.00
2023-05-21T02:55:39.383Z,534.00
2023-05-21T02:56:39.291Z,531.00
2023-05-21T02:57:39.307Z,540.00
2023-05-21T02:58:39.414Z,535.00
2023-05-21T02:59:39.472Z,531.00
2023-05-21T03:00:39.529Z,549.00
2023-05-21T03:01:39.632Z,538.00
2023-05-21T03:02:39.732Z,538.00
2023-05-21T03:03:39.708Z,545.00
2023-05-21T03:04:39.711Z,526.00
2023-05-21T03:05:39.820Z,532.00
2023-05-21T03:06:39.881Z,536.00
2023-05-21T03:07:39.946Z,543.00
2023-05-21T03:08:39.998Z,532.00
2023-05-21T03:09:40.029Z,528.00
2023-05-21T03:10:40.063Z,545.00
2023-05-21T03:11:40.089Z,537.00
2023-05-21T03:12:40.176Z,531.00
2023-05-21T03:13:40.233Z,538.00
2023-05-21T03:14:40.291Z,537.00
2023-05-21T03:15:40.329Z,534.00
2023-05-21T03:16:40.446Z,544.00
2023-05-21T03:17:40.511Z,541.00
2023-05-21T03:18:40.515Z,543.00
2023-05-21T03:19:40.584Z,536.00
2023-05-21T03:20:40.655Z,529.00
2023-05-21T03:21:40.695Z,551.00
2023-05-21T03:22:40.763Z,551.00
2023-05-21T03:23:40.831Z,543.00
2023-05-21T03:24:40.868Z,541.00
2023-05-21T03:25:40.903Z,544.00
2023-05-21T03:26:41.002Z,536.00
2023-05-21T03:27:41.101Z,544.00
2023-05-21T03:28:41.112Z,548.00
2023-05-21T03:29:41.220Z,532.00
2023-05-21T03:30:41.223Z,539.00
2023-05-21T03:31:41.318Z,547.00
2023-05-21T03:32:41.461Z,534.00
2023-05-21T03:33:41.456Z,536.00
2023-05-21T03:34:41.454Z,539.00
2023-05-21T03:35:41.527Z,533.00
2023-05-21T03:36:41.574Z,533.00
2023-05-21T03:37:41.673Z,550.00
2023-05-21T03:38:41.688Z,541.00
2023-05-21T03:39:41.783Z,548.00
2023-05-21T03:40:41.799Z,538.00
2023-05-21T03:41:41.913Z,539.00
2023-05-21T03:42:41.973Z,527.00
2023-05-21T03:43:42.003Z,539.00
2023-05-21T03:44:42.034Z,538.00
2023-05-21T03:45:44.307Z,538.00
2023-05-21T03:46:42.410Z,544.00
2023-05-21T03:47:42.386Z,544.00
2023-05-21T03:48:42.405Z,531.00
2023-05-21T03:49:42.408Z,541.00
2023-05-21T03:50:42.472Z,552.00
2023-05-21T03:51:42.593Z,529.00
2023-05-21T03:52:42.668Z,534.00
2023-05-21T03:53:42.712Z,528.00
2023-05-21T03:54:42.764Z,547.00
2023-05-21T03:55:42.830Z,528.00
2023-05-21T03:56:42.878Z,530.00
2023-05-21T03:57:42.908Z,534.00
2023-05-21T03:58:42.980Z,542.00
2023-05-21T03:59:43.057Z,532.00
2023-05-21T04:00:43.120Z,539.00
2023-05-21T04:01:43.128Z,538.00
2023-05-21T04:02:43.540Z,537.00
2023-05-21T04:03:43.411Z,541.00
2023-05-21T04:04:43.362Z,539.00
2023-05-21T04:05:43.351Z,539.00
2023-05-21T04:06:43.414Z,537.00
2023-05-21T04:07:43.448Z,534.00
2023-05-21T04:08:43.542Z,540.00
2023-05-21T04:09:43.583Z,544.00
2023-05-21T04:10:43.652Z,534.00
2023-05-21T04:11:43.692Z,535.00
2023-05-21T04:12:43.761Z,544.00
2023-05-21T04:13:43.804Z,549.00
2023-05-21T04:14:43.820Z,536.00
2023-05-21T04:15:43.936Z,537.00
2023-05-21T04:16:43.937Z,548.00
2023-05-21T04:17:44.038Z,533.00
2023-05-21T04:18:45.545Z,529.00
2023-05-21T04:19:44.124Z,554.00
2023-05-21T04:20:44.162Z,544.00
2023-05-21T04:21:44.214Z,529.00
2023-05-21T04:22:44.278Z,540.00
2023-05-21T04:23:44.403Z,534.00
2023-05-21T04:24:44.392Z,528.00
2023-05-21T04:25:44.476Z,536.00
2023-05-21T04:26:44.564Z,537.00
2023-05-21T04:27:44.625Z,535.00
2023-05-21T04:28:44.632Z,543.00
2023-05-21T04:29:44.736Z,545.00
2023-05-21T04:30:44.763Z,539.00
2023-05-21T04:31:44.876Z,536.00
2023-05-21T04:32:44.925Z,538.00
2023-05-21T04:33:44.957Z,536.00
2023-05-21T04:34:45.031Z,530.00
2023-05-21T04:35:45.087Z,534.00
2023-05-21T04:36:45.144Z,542.00
2023-05-21T04:37:45.200Z,531.00
2023-05-21T04:38:45.305Z,548.00
2023-05-21T04:39:45.317Z,549.00
2023-05-21T04:40:45.368Z,522.00
2023-05-21T04:41:45.444Z,532.00
2023-05-21T04:42:45.541Z,529.00
2023-05-21T04:43:45.593Z,537.00
2023-05-21T04:44:45.656Z,536.00
2023-05-21T04:45:45.706Z,545.00
2023-05-21T04:46:45.797Z,532.00
2023-05-21T04:47:45.818Z,540.00
2023-05-21T04:48:45.848Z,529.00
2023-05-21T04:49:45.950Z,537.00
2023-05-21T04:50:45.981Z,531.00
2023-05-21T04:51:46.021Z,541.00
2023-05-21T04:52:46.083Z,533.00
2023-05-21T04:53:46.136Z,528.00
2023-05-21T04:54:46.185Z,534.00
2023-05-21T04:55:46.249Z,536.00
2023-05-21T04:56:46.306Z,531.00
2023-05-21T04:57:46.344Z,527.00
2023-05-21T04:58:46.446Z,540.00
2023-05-21T04:59:46.437Z,529.00
2023-05-21T05:00:46.505Z,533.00
2023-05-21T05:01:46.551Z,527.00
2023-05-21T05:02:46.680Z,534.00
2023-05-21T05:03:46.644Z,526.00
2023-05-21T05:04:46.676Z,529.00
2023-05-21T05:05:46.729Z,528.00
2023-05-21T05:06:46.793Z,529.00
2023-05-21T05:07:46.843Z,535.00
2023-05-21T05:08:46.907Z,533.00
2023-05-21T05:09:46.929Z,526.00
2023-05-21T05:10:46.980Z,529.00
2023-05-21T05:11:47.062Z,527.00
2023-05-21T05:12:47.113Z,531.00
2023-05-21T05:13:47.146Z,526.00
2023-05-21T05:14:47.206Z,527.00
2023-05-21T05:15:49.603Z,524.00
2023-05-21T05:16:47.332Z,531.00
2023-05-21T05:17:47.261Z,530.00
2023-05-21T05:18:47.264Z,531.00
2023-05-21T05:19:47.228Z,532.00
2023-05-21T05:20:47.234Z,535.00
2023-05-21T05:21:47.203Z,534.00
2023-05-21T05:22:47.206Z,536.00
2023-05-21T05:23:47.204Z,532.00
2023-05-21T05:24:47.222Z,530.00
2023-05-21T05:25:47.238Z,535.00
2023-05-21T05:26:47.180Z,536.00
2023-05-21T05:27:47.190Z,525.00
2023-05-21T05:28:47.200Z,533.00
2023-05-21T05:29:47.149Z,528.00
2023-05-21T05:30:47.169Z,534.00
2023-05-21T05:31:47.115Z,531.00
2023-05-21T05:32:47.257Z,530.00
2023-05-21T05:33:47.179Z,534.00
2023-05-21T05:34:47.106Z,533.00
2023-05-21T05:35:47.149Z,529.00
2023-05-21T05:36:47.140Z,533.00
2023-05-21T05:37:47.145Z,538.00
2023-05-21T05:38:47.109Z,532.00
2023-05-21T05:39:47.106Z,534.00
2023-05-21T05:40:47.084Z,535.00
2023-05-21T05:41:47.100Z,536.00
2023-05-21T05:42:47.091Z,536.00
2023-05-21T05:43:47.068Z,531.00
2023-05-21T05:44:47.124Z,538.00
2023-05-21T05:45:47.049Z,531.00
2023-05-21T05:46:47.110Z,534.00
2023-05-21T05:47:47.116Z,538.00
2023-05-21T05:48:47.077Z,539.00
2023-05-21T05:49:47.075Z,532.00
2023-05-21T05:50:47.149Z,534.00
2023-05-21T05:51:47.014Z,535.00
2023-05-21T05:52:47.088Z,536.00
2023-05-21T05:53:47.025Z,534.00
2023-05-21T05:54:47.004Z,536.00
2023-05-21T05:55:46.979Z,537.00
2023-05-21T05:56:46.979Z,537.00
2023-05-21T05:57:47.026Z,536.00
2023-05-21T05:58:47.036Z,532.00
2023-05-21T05:59:46.999Z,530.00
2023-05-21T06:00:46.945Z,532.00
2023-05-21T06:01:46.949Z,538.00
2023-05-21T06:02:47.022Z,535.00
2023-05-21T06:03:47.021Z,535.00
2023-05-21T06:04:46.914Z,537.00
2023-05-21T06:05:46.977Z,537.00
2023-05-21T06:06:46.950Z,541.00
2023-05-21T06:07:46.923Z,537.00
2023-05-21T06:08:46.923Z,534.00
2023-05-21T06:09:46.927Z,537.00
2023-05-21T06:10:46.919Z,540.00
2023-05-21T06:11:46.904Z,538.00
2023-05-21T06:12:46.923Z,542.00
2023-05-21T06:13:46.931Z,540.00
2023-05-21T06:14:46.934Z,541.00
2023-05-21T06:15:46.968Z,542.00
2023-05-21T06:16:46.929Z,539.00
2023-05-21T06:17:47.021Z,542.00
2023-05-21T06:18:47.012Z,536.00
2023-05-21T06:19:46.980Z,546.00
2023-05-21T06:20:47.074Z,543.00
2023-05-21T06:21:47.038Z,544.00
2023-05-21T06:22:47.093Z,541.00
2023-05-21T06:23:47.103Z,545.00
2023-05-21T06:24:47.163Z,541.00
2023-05-21T06:25:47.113Z,544.00
2023-05-21T06:26:47.324Z,544.00
2023-05-21T06:27:47.239Z,539.00
2023-05-21T06:28:47.223Z,545.00
2023-05-21T06:29:47.330Z,543.00
2023-05-21T06:30:47.259Z,543.00
2023-05-21T06:31:47.350Z,548.00
2023-05-21T06:32:47.515Z,544.00
2023-05-21T06:33:47.522Z,544.00
2023-05-21T06:34:47.425Z,543.00
2023-05-21T06:35:47.418Z,543.00
2023-05-21T06:36:47.417Z,549.00
2023-05-21T06:37:47.412Z,548.00
2023-05-21T06:38:47.406Z,550.00
2023-05-21T06:39:47.402Z,542.00
2023-05-21T06:40:47.410Z,545.00
2023-05-21T06:41:47.461Z,546.00
2023-05-21T06:42:47.556Z,547.00
2023-05-21T06:43:47.483Z,548.00
2023-05-21T06:44:47.490Z,547.00
2023-05-21T06:45:47.512Z,546.00
2023-05-21T06:46:47.496Z,550.00
2023-05-21T06:47:47.601Z,548.00
2023-05-21T06:48:47.532Z,552.00
2023-05-21T06:49:47.575Z,545.00
2023-05-21T06:50:47.572Z,545.00
2023-05-21T06:51:47.618Z,551.00
2023-05-21T06:52:47.631Z,551.00
2023-05-21T06:53:47.687Z,546.00
2023-05-21T06:54:47.715Z,549.00
2023-05-21T06:55:47.808Z,548.00
2023-05-21T06:56:47.831Z,550.00
2023-05-21T06:57:47.847Z,553.00
2023-05-21T06:58:47.951Z,548.00
2023-05-21T06:59:47.944Z,547.00
2023-05-21T07:00:47.977Z,556.00
2023-05-21T07:01:48.077Z,547.00
2023-05-21T07:02:48.152Z,554.00
2023-05-21T07:03:48.255Z,549.00
2023-05-21T07:04:48.225Z,548.00
2023-05-21T07:05:48.293Z,557.00
2023-05-21T07:06:48.308Z,543.00
2023-05-21T07:07:48.428Z,546.00
2023-05-21T07:08:48.457Z,553.00
2023-05-21T07:09:48.533Z,547.00
2023-05-21T07:10:48.547Z,549.00
2023-05-21T07:11:48.607Z,549.00
2023-05-21T07:12:48.718Z,547.00
2023-05-21T07:13:48.701Z,549.00
2023-05-21T07:14:48.730Z,555.00
2023-05-21T07:15:48.805Z,555.00
2023-05-21T07:16:48.935Z,550.00
2023-05-21T07:17:48.930Z,549.00
2023-05-21T07:18:48.956Z,555.00
2023-05-21T07:19:49.009Z,553.00
2023-05-21T07:20:49.055Z,548.00
2023-05-21T07:21:49.121Z,543.00
2023-05-21T07:22:49.131Z,557.00
2023-05-21T07:23:49.236Z,552.00
2023-05-21T07:24:49.240Z,548.00
2023-05-21T07:25:49.252Z,554.00
2023-05-21T07:26:49.297Z,556.00
2023-05-21T07:27:49.360Z,555.00
2023-05-21T07:28:49.618Z,553.00
2023-05-21T07:29:49.416Z,555.00
2023-05-21T07:30:49.543Z,553.00
2023-05-21T07:31:49.486Z,553.00
2023-05-21T07:32:49.585Z,553.00
2023-05-21T07:33:49.546Z,560.00
2023-05-21T07:34:49.621Z,552.00
2023-05-21T07:35:49.627Z,560.00
2023-05-21T07:36:49.629Z,558.00
2023-05-21T07:37:49.707Z,556.00
2023-05-21T07:38:49.650Z,556.00
2023-05-21T07:39:49.681Z,556.00
2023-05-21T07:40:49.792Z,561.00
2023-05-21T07:41:49.716Z,561.00
2023-05-21T07:42:49.694Z,561.00
2023-05-21T07:43:49.912Z,560.00
2023-05-21T07:44:49.696Z,557.00
2023-05-21T07:45:49.863Z,554.00
2023-05-21T07:46:49.832Z,559.00
2023-05-21T07:47:49.826Z,559.00
2023-05-21T07:48:49.751Z,555.00
2023-05-21T07:49:49.764Z,557.00
2023-05-21T07:50:49.752Z,554.00
2023-05-21T07:51:49.771Z,555.00
2023-05-21T07:52:49.811Z,563.00
2023-05-21T07:53:49.782Z,561.00
2023-05-21T07:54:49.797Z,562.00
2023-05-21T07:55:49.788Z,555.00
2023-05-21T07:56:49.826Z,560.00
2023-05-21T07:57:49.882Z,562.00
2023-05-21T07:58:49.915Z,564.00
2023-05-21T07:59:49.990Z,563.00
2023-05-21T08:00:50.053Z,563.00
2023-05-21T08:01:50.161Z,560.00
2023-05-21T08:02:50.321Z,561.00
2023-05-21T08:03:50.407Z,558.00
2023-05-21T08:04:50.399Z,565.00
2023-05-21T08:05:50.340Z,564.00
2023-05-21T08:06:50.400Z,559.00
2023-05-21T08:07:50.512Z,562.00
2023-05-21T08:08:50.570Z,561.00
2023-05-21T08:09:50.629Z,563.00
2023-05-21T08:10:50.685Z,559.00
2023-05-21T08:11:50.753Z,564.00
2023-05-21T08:12:50.799Z,562.00
2023-05-21T08:13:50.834Z,562.00
2023-05-21T08:14:50.869Z,566.00
2023-05-21T08:15:52.906Z,562.00
2023-05-21T08:16:51.091Z,560.00
2023-05-21T08:17:51.098Z,558.00
2023-05-21T08:18:51.156Z,567.00
2023-05-21T08:19:51.162Z,566.00
2023-05-21T08:20:51.193Z,564.00
2023-05-21T08:21:52.813Z,566.00
2023-05-21T08:22:51.283Z,565.00
2023-05-21T08:23:51.290Z,568.00
2023-05-21T08:24:51.345Z,566.00
2023-05-21T08:25:51.347Z,568.00
2023-05-21T08:26:51.363Z,567.00
2023-05-21T08:27:52.447Z,563.00
2023-05-21T08:28:51.428Z,568.00
2023-05-21T08:29:51.431Z,565.00
2023-05-21T08:30:51.448Z,566.00
2023-05-21T08:31:51.496Z,565.00
2023-05-21T08:32:51.516Z,567.00
2023-05-21T08:33:51.465Z,569.00
2023-05-21T08:34:51.458Z,568.00
2023-05-21T08:35:51.475Z,568.00
2023-05-21T08:36:51.469Z,566.00
2023-05-21T08:37:51.489Z,572.00
2023-05-21T08:38:51.491Z,565.00
2023-05-21T08:39:51.500Z,568.00
2023-05-21T08:40:51.467Z,566.00
2023-05-21T08:41:51.520Z,565.00
2023-05-21T08:42:51.554Z,569.00
2023-05-21T08:43:53.498Z,571.00
2023-05-21T08:44:51.465Z,577.00
2023-05-21T08:45:51.482Z,574.00
2023-05-21T08:46:51.475Z,571.00
2023-05-21T08:47:51.506Z,570.00
2023-05-21T08:48:51.473Z,569.00
2023-05-21T08:49:51.469Z,571.00
2023-05-21T08:50:51.479Z,570.00
2023-05-21T08:51:51.431Z,574.00
2023-05-21T08:52:51.442Z,570.00
2023-05-21T08:53:51.434Z,574.00
2023-05-21T08:54:51.483Z,577.00
2023-05-21T08:55:51.735Z,570.00
2023-05-21T08:56:51.408Z,573.00
2023-05-21T08:57:51.376Z,574.00
2023-05-21T08:58:51.419Z,570.00
2023-05-21T08:59:51.383Z,571.00
2023-05-21T09:00:51.429Z,572.00
2023-05-21T09:01:51.410Z,568.00
2023-05-21T09:02:51.430Z,571.00
2023-05-21T09:03:51.385Z,570.00
2023-05-21T09:04:51.367Z,570.00
2023-05-21T09:05:51.375Z,570.00
2023-05-21T09:06:51.376Z,571.00
2023-05-21T09:07:52.505Z,573.00
2023-05-21T09:08:51.403Z,575.00
2023-05-21T09:09:51.335Z,572.00
2023-05-21T09:10:51.352Z,570.00
2023-05-21T09:11:51.332Z,569.00
2023-05-21T09:12:51.325Z,573.00
2023-05-21T09:13:51.280Z,573.00
2023-05-21T09:14:51.342Z,571.00
2023-05-21T09:15:51.336Z,570.00
2023-05-21T09:16:51.302Z,570.00
2023-05-21T09:17:51.322Z,572.00
2023-05-21T09:18:51.324Z,575.00
2023-05-21T09:19:51.261Z,570.00
2023-05-21T09:20:51.272Z,572.00
2023-05-21T09:21:51.267Z,571.00
2023-05-21T09:22:51.279Z,574.00
2023-05-21T09:23:51.294Z,571.00
2023-05-21T09:24:51.246Z,570.00
2023-05-21T09:25:51.239Z,571.00
2023-05-21T09:26:51.218Z,573.00
2023-05-21T09:27:51.211Z,573.00
2023-05-21T09:28:51.332Z,574.00
2023-05-21T09:29:51.329Z,568.00
2023-05-21T09:30:51.387Z,574.00
2023-05-21T09:31:51.570Z,572.00
2023-05-21T09:32:51.588Z,572.00
2023-05-21T09:33:51.558Z,572.00
2023-05-21T09:34:51.607Z,568.00
2023-05-21T09:35:51.685Z,576.00
2023-05-21T09:36:51.779Z,576.00
2023-05-21T09:37:51.856Z,574.00
2023-05-21T09:38:52.088Z,573.00
2023-05-21T09:39:51.946Z,577.00
2023-05-21T09:40:52.002Z,572.00
2023-05-21T09:41:52.090Z,574.00
2023-05-21T09:42:52.145Z,573.00
2023-05-21T09:43:52.190Z,570.00
2023-05-21T09:44:52.259Z,577.00
2023-05-21T09:45:52.475Z,575.00
2023-05-21T09:46:52.510Z,575.00
2023-05-21T09:47:52.550Z,572.00
2023-05-21T09:48:52.519Z,574.00
2023-05-21T09:49:52.594Z,574.00
2023-05-21T09:50:52.653Z,574.00
2023-05-21T09:51:52.718Z,576.00
2023-05-21T09:52:52.782Z,574.00
2023-05-21T09:53:52.849Z,578.00
2023-05-21T09:54:52.917Z,571.00
2023-05-21T09:55:52.921Z,570.00
2023-05-21T09:56:52.982Z,569.00
2023-05-21T09:57:53.101Z,569.00
2023-05-21T09:58:53.159Z,568.00
2023-05-21T09:59:53.161Z,569.00
2023-05-21T10:00:53.222Z,570.00
2023-05-21T10:01:53.342Z,571.00
2023-05-21T10:02:53.388Z,569.00
2023-05-21T10:03:53.429Z,570.00
2023-05-21T10:04:53.562Z,569.00
2023-05-21T10:05:53.526Z,570.00
2023-05-21T10:06:53.614Z,569.00
2023-05-21T10:07:53.583Z,567.00
2023-05-21T10:08:53.622Z,566.00
2023-05-21T10:09:53.738Z,570.00
2023-05-21T10:10:53.771Z,564.00
2023-05-21T10:11:53.837Z,569.00
2023-05-21T10:12:53.855Z,570.00
2023-05-21T10:13:53.899Z,568.00
2023-05-21T10:14:53.979Z,568.00
2023-05-21T10:15:54.031Z,569.00
2023-05-21T10:16:54.091Z,567.00
2023-05-21T10:17:54.219Z,574.00
2023-05-21T10:18:54.195Z,571.00
2023-05-21T10:19:54.199Z,567.00
2023-05-21T10:20:54.371Z,568.00
2023-05-21T10:21:54.265Z,571.00
2023-05-21T10:22:54.297Z,574.00
2023-05-21T10:23:54.385Z,574.00
2023-05-21T10:24:54.433Z,571.00
2023-05-21T10:25:54.469Z,571.00
2023-05-21T10:26:54.775Z,571.00
2023-05-21T10:27:54.514Z,573.00
2023-05-21T10:28:54.583Z,571.00
2023-05-21T10:29:54.613Z,573.00
2023-05-21T10:30:54.646Z,571.00
2023-05-21T10:31:54.654Z,569.00
2023-05-21T10:32:54.842Z,576.00
2023-05-21T10:33:54.775Z,571.00
2023-05-21T10:34:54.738Z,573.00
2023-05-21T10:35:54.760Z,572.00
2023-05-21T10:36:54.846Z,572.00
2023-05-21T10:37:54.932Z,569.00
2023-05-21T10:38:54.847Z,571.00
2023-05-21T10:39:54.900Z,574.00
2023-05-21T10:40:54.960Z,571.00
2023-05-21T10:41:56.392Z,571.00
2023-05-21T10:42:55.019Z,577.00
2023-05-21T10:43:54.974Z,576.00
2023-05-21T10:44:54.962Z,574.00
2023-05-21T10:45:55.013Z,573.00
2023-05-21T10:46:54.951Z,573.00
2023-05-21T10:47:54.998Z,573.00
2023-05-21T10:48:54.877Z,575.00
2023-05-21T10:49:54.933Z,573.00
2023-05-21T10:50:54.876Z,573.00
2023-05-21T10:51:55.049Z,574.00
2023-05-21T10:52:54.904Z,574.00
2023-05-21T10:53:54.882Z,573.00
2023-05-21T10:54:54.894Z,573.00
2023-05-21T10:55:54.886Z,572.00
2023-05-21T10:56:54.892Z,571.00
2023-05-21T10:57:54.900Z,575.00
2023-05-21T10:58:54.875Z,572.00
2023-05-21T10:59:54.863Z,572.00
2023-05-21T11:00:54.903Z,577.00
2023-05-21T11:01:54.843Z,571.00
2023-05-21T11:02:54.955Z,571.00
2023-05-21T11:03:54.878Z,573.00
2023-05-21T11:04:54.833Z,574.00
2023-05-21T11:05:54.841Z,574.00
2023-05-21T11:06:54.793Z,573.00
2023-05-21T11:07:54.851Z,576.00
2023-05-21T11:08:55.721Z,572.00
2023-05-21T11:09:54.825Z,575.00
2023-05-21T11:10:54.836Z,571.00
2023-05-21T11:11:54.854Z,575.00
2023-05-21T11:12:54.833Z,575.00
2023-05-21T11:13:55.648Z,573.00
2023-05-21T11:14:54.730Z,575.00
2023-05-21T11:15:54.797Z,574.00
2023-05-21T11:16:54.829Z,576.00
2023-05-21T11:17:54.797Z,574.00
2023-05-21T11:18:54.737Z,574.00
2023-05-21T11:19:54.728Z,576.00
2023-05-21T11:20:55.664Z,576.00
2023-05-21T11:21:54.715Z,577.00
2023-05-21T11:22:54.698Z,578.00
2023-05-21T11:23:54.703Z,576.00
2023-05-21T11:24:54.700Z,579.00
2023-05-21T11:25:54.699Z,578.00
2023-05-21T11:26:54.711Z,576.00
2023-05-21T11:27:54.775Z,579.00
2023-05-21T11:28:54.685Z,578.00
2023-05-21T11:29:54.669Z,582.00
2023-05-21T11:30:54.741Z,582.00
2023-05-21T11:31:54.650Z,579.00
2023-05-21T11:32:54.654Z,581.00
2023-05-21T11:33:54.636Z,581.00
2023-05-21T11:34:54.606Z,583.00
2023-05-21T11:35:54.631Z,579.00
2023-05-21T11:36:54.615Z,581.00
2023-05-21T11:37:54.584Z,582.00
2023-05-21T11:38:54.605Z,581.00
2023-05-21T11:39:54.622Z,580.00
2023-05-21T11:40:54.596Z,583.00
2023-05-21T11:41:54.589Z,580.00
2023-05-21T11:42:54.592Z,582.00
2023-05-21T11:43:54.560Z,583.00
2023-05-21T11:44:54.580Z,583.00
2023-05-21T11:45:54.544Z,580.00
2023-05-21T11:46:54.633Z,582.00
2023-05-21T11:47:54.619Z,583.00
2023-05-21T11:48:54.591Z,584.00
2023-05-21T11:49:54.531Z,584.00
2023-05-21T11:50:54.561Z,585.00
2023-05-21T11:51:54.533Z,583.00
2023-05-21T11:52:54.547Z,582.00
2023-05-21T11:53:54.529Z,585.00
2023-05-21T11:54:54.514Z,585.00
2023-05-21T11:55:54.508Z,586.00
2023-05-21T11:56:54.484Z,586.00
2023-05-21T11:57:54.487Z,587.00
2023-05-21T11:58:54.486Z,583.00
2023-05-21T11:59:54.470Z,583.00
2023-05-21T12:00:54.477Z,582.00
2023-05-21T12:01:54.465Z,584.00
2023-05-21T12:02:54.618Z,582.00
2023-05-21T12:03:54.475Z,582.00
2023-05-21T12:04:54.446Z,581.00
2023-05-21T12:05:54.471Z,582.00
2023-05-21T12:06:54.437Z,581.00
2023-05-21T12:07:54.436Z,580.00
2023-05-21T12:08:54.422Z,581.00
2023-05-21T12:09:54.379Z,580.00
2023-05-21T12:10:54.411Z,581.00
2023-05-21T12:11:54.432Z,583.00
2023-05-21T12:12:56.418Z,582.00
2023-05-21T12:13:54.400Z,583.00
2023-05-21T12:14:54.395Z,584.00
2023-05-21T12:15:54.393Z,584.00
2023-05-21T12:16:54.390Z,581.00
2023-05-21T12:17:54.479Z,583.00
2023-05-21T12:18:54.400Z,583.00
2023-05-21T12:19:54.335Z,582.00
2023-05-21T12:20:54.356Z,585.00
2023-05-21T12:21:54.336Z,588.00
2023-05-21T12:22:54.420Z,585.00
2023-05-21T12:23:54.329Z,583.00
2023-05-21T12:24:54.364Z,585.00
2023-05-21T12:25:54.318Z,584.00
2023-05-21T12:26:54.282Z,587.00
2023-05-21T12:27:54.262Z,586.00
2023-05-21T12:28:54.291Z,588.00